Time;durP1;ratioP1;P1;durP2;ratioP2;P2;SDS_P1;SDS_P2;PMS_P1;PMS_P2;Temp;Humidity;BMP_temperature;BMP_pressure;BME280_temperature;BME280_humidity;BME280_pressure;Samples;Min_cycle;Max_cycle;Signal;HPM_P1;HPM_P2
2023/03/08 00:00:44;;;;;;;5.23;2.00;;;0.90;99.90;;;;;;4984372;28;20503;-69
2023/03/08 00:03:14;;;;;;;3.60;1.73;;;0.90;99.90;;;;;;4998670;28;20481;-68
2023/03/08 00:05:42;;;;;;;2.63;1.60;;;0.90;99.90;;;;;;4991030;28;20476;-69
2023/03/08 00:08:10;;;;;;;2.60;1.80;;;0.90;99.90;;;;;;4990718;28;20488;-67
2023/03/08 00:10:38;;;;;;;3.40;1.93;;;0.90;99.90;;;;;;4982755;28;20984;-69
2023/03/08 00:13:06;;;;;;;3.27;1.70;;;0.90;99.90;;;;;;4986964;28;20476;-68
2023/03/08 00:15:36;;;;;;;3.07;1.90;;;0.90;99.90;;;;;;4986447;28;20472;-68
2023/03/08 00:18:05;;;;;;;1.60;1.50;;;0.90;99.90;;;;;;4987006;28;20496;-69
2023/03/08 00:20:33;;;;;;;1.97;1.50;;;0.90;99.90;;;;;;4984040;28;20492;-68
2023/03/08 00:23:01;;;;;;;2.90;1.70;;;0.90;99.90;;;;;;4988682;28;20475;-68
2023/03/08 00:25:29;;;;;;;2.57;1.73;;;0.80;99.90;;;;;;4983290;28;20479;-68
2023/03/08 00:27:57;;;;;;;1.43;1.33;;;0.80;99.90;;;;;;4986400;28;20472;-68
2023/03/08 00:30:25;;;;;;;3.90;1.50;;;0.80;99.90;;;;;;4982461;28;22252;-69
2023/03/08 00:32:53;;;;;;;1.90;1.53;;;0.80;99.90;;;;;;4982037;28;20480;-68
2023/03/08 00:35:22;;;;;;;2.63;1.80;;;0.80;99.90;;;;;;4979676;28;20475;-68
2023/03/08 00:37:50;;;;;;;2.80;1.60;;;0.80;99.90;;;;;;4981937;28;21012;-68
2023/03/08 00:40:18;;;;;;;1.90;1.60;;;0.80;99.90;;;;;;4981149;28;20958;-70
2023/03/08 00:42:46;;;;;;;1.63;1.50;;;0.80;99.90;;;;;;4980714;28;20503;-68
2023/03/08 00:45:14;;;;;;;3.70;1.77;;;0.70;99.90;;;;;;4979518;28;21023;-69
2023/03/08 00:47:42;;;;;;;1.97;1.80;;;0.70;99.90;;;;;;4983105;28;23415;-69
2023/03/08 00:50:11;;;;;;;5.97;1.93;;;0.70;99.90;;;;;;4984379;28;20468;-69
2023/03/08 00:52:40;;;;;;;2.20;2.00;;;0.70;99.90;;;;;;4980448;28;20498;-68
2023/03/08 00:55:10;;;;;;;2.60;2.03;;;0.60;99.90;;;;;;4983710;28;20460;-69
2023/03/08 00:57:38;;;;;;;3.33;2.03;;;0.70;99.90;;;;;;4984108;28;20476;-68
2023/03/08 01:00:09;;;;;;;2.43;2.23;;;0.70;99.90;;;;;;4981271;28;20492;-69
2023/03/08 01:02:39;;;;;;;3.07;2.30;;;0.70;99.90;;;;;;4981773;28;20500;-69
2023/03/08 01:05:09;;;;;;;2.40;2.20;;;0.70;99.90;;;;;;4984084;28;20475;-68
2023/03/08 01:07:37;;;;;;;3.77;2.10;;;0.70;99.90;;;;;;4984633;28;20503;-68
2023/03/08 01:10:07;;;;;;;3.40;2.07;;;0.60;99.90;;;;;;4984789;28;20492;-68
2023/03/08 01:12:35;;;;;;;2.40;2.20;;;0.60;99.90;;;;;;4983897;28;20490;-68
2023/03/08 01:15:05;;;;;;;3.10;2.37;;;0.60;99.90;;;;;;4989422;28;20465;-68
2023/03/08 01:17:33;;;;;;;3.60;2.20;;;0.60;99.90;;;;;;4983363;28;20468;-68
2023/03/08 01:20:01;;;;;;;2.03;1.83;;;0.60;99.90;;;;;;4989535;28;20530;-68
2023/03/08 01:22:29;;;;;;;2.77;2.10;;;0.50;99.90;;;;;;4996928;28;20492;-68
2023/03/08 01:24:57;;;;;;;2.13;1.93;;;0.50;99.90;;;;;;4984405;28;21368;-69
2023/03/08 01:27:26;;;;;;;3.47;2.40;;;0.50;99.90;;;;;;4986310;28;21039;-68
2023/03/08 01:29:54;;;;;;;7.73;2.40;;;0.40;99.90;;;;;;4991278;28;20492;-68
2023/03/08 01:32:22;;;;;;;2.80;2.13;;;0.40;99.90;;;;;;4983098;28;20510;-70
2023/03/08 01:34:50;;;;;;;2.63;2.20;;;0.40;99.90;;;;;;4978439;28;20476;-69
2023/03/08 01:37:18;;;;;;;2.17;2.03;;;0.30;99.90;;;;;;4980646;28;20495;-69
2023/03/08 01:39:46;;;;;;;2.20;2.00;;;0.30;99.90;;;;;;4976335;28;20506;-69
2023/03/08 01:42:14;;;;;;;3.13;2.43;;;0.30;99.90;;;;;;4978328;28;20492;-69
2023/03/08 01:44:53;;;;;;;2.90;2.60;;;0.20;99.90;;;;;;4984173;28;20484;-68
2023/03/08 01:47:22;;;;;;;2.50;2.30;;;0.20;99.90;;;;;;4988267;28;20476;-69
2023/03/08 01:49:50;;;;;;;3.00;2.10;;;0.20;99.90;;;;;;4994235;28;21296;-69
2023/03/08 01:52:21;;;;;;;2.73;2.10;;;0.30;99.90;;;;;;4979964;28;21026;-69
2023/03/08 01:54:53;;;;;;;2.97;2.30;;;0.20;99.90;;;;;;4987134;28;20480;-69
2023/03/08 01:57:23;;;;;;;4.13;2.43;;;0.20;99.90;;;;;;4989371;28;20465;-68
2023/03/08 01:59:57;;;;;;;2.60;2.40;;;0.20;99.90;;;;;;4990120;28;21117;-69
2023/03/08 02:02:29;;;;;;;2.80;2.50;;;0.20;99.90;;;;;;4991044;28;20500;-68
2023/03/08 02:04:57;;;;;;;4.07;2.90;;;0.20;99.90;;;;;;4989650;28;20472;-68
2023/03/08 02:07:25;;;;;;;2.60;2.40;;;0.20;99.90;;;;;;4987850;28;20856;-68
2023/03/08 02:09:53;;;;;;;3.20;2.90;;;0.20;99.90;;;;;;4994067;28;20492;-69
2023/03/08 02:12:22;;;;;;;3.90;2.83;;;0.20;99.90;;;;;;4988141;28;20488;-69
2023/03/08 02:14:50;;;;;;;5.20;2.67;;;0.20;99.90;;;;;;4992393;28;20468;-69
2023/03/08 02:17:19;;;;;;;3.47;2.77;;;0.20;99.90;;;;;;4990565;28;20506;-71
2023/03/08 02:19:53;;;;;;;3.90;3.33;;;0.20;99.90;;;;;;4988319;28;20563;-69
2023/03/08 02:22:21;;;;;;;4.13;3.43;;;0.20;99.90;;;;;;4989138;28;20489;-68
2023/03/08 02:24:51;;;;;;;3.70;3.33;;;0.20;99.90;;;;;;4994657;28;20996;-67
2023/03/08 02:27:24;;;;;;;4.43;3.30;;;0.20;99.90;;;;;;4992745;28;20479;-69
2023/03/08 02:29:52;;;;;;;3.50;3.20;;;0.20;99.90;;;;;;4986958;28;20514;-68
2023/03/08 02:32:20;;;;;;;4.07;3.20;;;0.20;99.90;;;;;;4989781;28;20495;-69
2023/03/08 02:34:48;;;;;;;4.70;3.50;;;0.20;99.90;;;;;;4993678;28;21036;-68
2023/03/08 02:37:16;;;;;;;3.97;3.50;;;0.20;99.90;;;;;;4991379;28;20479;-68
2023/03/08 02:39:44;;;;;;;3.83;3.43;;;0.20;99.90;;;;;;4992794;28;20496;-68
2023/03/08 02:42:13;;;;;;;5.93;4.20;;;0.30;99.90;;;;;;4996529;28;21514;-67
2023/03/08 02:44:41;;;;;;;3.43;3.13;;;0.30;99.90;;;;;;4989998;28;20468;-68
2023/03/08 02:47:09;;;;;;;3.80;3.40;;;0.30;99.90;;;;;;4986433;28;20468;-69
2023/03/08 02:49:37;;;;;;;5.50;3.50;;;0.40;99.90;;;;;;4986525;28;20508;-69
2023/03/08 02:52:05;;;;;;;3.50;3.20;;;0.40;99.90;;;;;;4995910;28;20500;-69
2023/03/08 02:54:33;;;;;;;4.50;4.10;;;0.40;99.90;;;;;;4989841;28;20475;-68
2023/03/08 02:57:01;;;;;;;5.67;4.43;;;0.40;99.90;;;;;;4984930;28;20473;-68
2023/03/08 02:59:30;;;;;;;5.13;4.60;;;0.40;99.90;;;;;;4985001;28;20496;-69
2023/03/08 03:01:58;;;;;;;4.13;3.83;;;0.40;99.90;;;;;;4984209;28;20500;-68
2023/03/08 03:04:30;;;;;;;5.03;4.63;;;0.40;99.90;;;;;;4988545;28;20468;-68
2023/03/08 03:06:58;;;;;;;4.83;4.43;;;0.50;99.90;;;;;;4989214;28;20506;-68
2023/03/08 03:09:26;;;;;;;5.73;5.23;;;0.50;99.90;;;;;;4987939;28;20496;-69
2023/03/08 03:11:54;;;;;;;5.10;4.60;;;0.50;99.90;;;;;;4986114;28;20485;-69
2023/03/08 03:14:22;;;;;;;5.30;4.80;;;0.50;99.90;;;;;;4984524;28;22314;-68
2023/03/08 03:16:52;;;;;;;5.60;5.10;;;0.60;99.90;;;;;;4985343;28;20547;-68
2023/03/08 03:19:20;;;;;;;5.97;5.37;;;0.60;99.90;;;;;;4991152;28;20507;-68
2023/03/08 03:21:48;;;;;;;5.63;5.13;;;0.60;99.90;;;;;;4994120;28;20613;-69
2023/03/08 03:24:16;;;;;;;5.80;5.30;;;0.60;99.90;;;;;;4986895;28;20483;-69
2023/03/08 03:26:44;;;;;;;5.63;5.13;;;0.60;99.90;;;;;;4987416;28;20555;-69
2023/03/08 03:29:12;;;;;;;5.50;5.00;;;0.60;99.90;;;;;;4989922;28;20485;-68
2023/03/08 03:31:40;;;;;;;5.37;4.80;;;0.60;99.90;;;;;;4989537;28;20484;-67
2023/03/08 03:34:09;;;;;;;5.47;4.93;;;0.60;99.90;;;;;;4990798;28;20476;-69
2023/03/08 03:36:37;;;;;;;5.10;4.60;;;0.60;99.90;;;;;;4983828;28;20480;-68
2023/03/08 03:39:05;;;;;;;6.17;5.67;;;0.60;99.90;;;;;;4987036;28;20494;-67
2023/03/08 03:41:33;;;;;;;6.17;5.33;;;0.70;99.90;;;;;;4985022;28;20531;-67
2023/03/08 03:44:01;;;;;;;4.53;4.13;;;0.70;99.90;;;;;;4985226;28;20964;-69
2023/03/08 03:46:29;;;;;;;5.17;4.67;;;0.60;99.90;;;;;;4984693;28;20478;-69
2023/03/08 03:48:57;;;;;;;4.90;4.50;;;0.60;99.90;;;;;;4990735;28;20499;-68
2023/03/08 03:51:27;;;;;;;5.23;4.73;;;0.70;99.90;;;;;;4984138;28;20499;-69
2023/03/08 03:53:55;;;;;;;4.93;4.53;;;0.70;99.90;;;;;;4983847;28;20475;-68
2023/03/08 03:56:25;;;;;;;7.13;5.03;;;0.70;99.90;;;;;;4984629;28;20475;-69
2023/03/08 03:58:54;;;;;;;5.23;4.77;;;0.70;99.90;;;;;;4985752;28;20493;-68
2023/03/08 04:01:24;;;;;;;5.90;5.40;;;0.70;99.90;;;;;;4990100;28;20491;-68
2023/03/08 04:03:53;;;;;;;5.13;4.60;;;0.70;99.90;;;;;;4992016;28;20503;-68
2023/03/08 04:06:23;;;;;;;8.47;5.70;;;0.70;99.90;;;;;;4982159;28;20487;-69
2023/03/08 04:08:54;;;;;;;4.70;4.23;;;0.70;99.90;;;;;;4986317;28;20496;-68
2023/03/08 04:11:24;;;;;;;5.60;5.10;;;0.80;99.90;;;;;;4984390;28;23204;-68
2023/03/08 04:13:52;;;;;;;5.83;5.20;;;0.80;99.90;;;;;;4985195;28;20537;-69
2023/03/08 04:16:22;;;;;;;6.30;5.37;;;0.70;99.90;;;;;;4984820;28;20476;-68
2023/03/08 04:18:52;;;;;;;5.40;4.90;;;0.80;99.90;;;;;;4987541;28;20492;-68
2023/03/08 04:21:21;;;;;;;6.20;5.70;;;0.80;99.90;;;;;;4989534;28;20496;-68
2023/03/08 04:23:49;;;;;;;5.13;4.67;;;0.80;99.90;;;;;;4987782;28;20508;-68
2023/03/08 04:26:18;;;;;;;5.43;4.93;;;0.80;99.90;;;;;;4985801;28;20480;-68
2023/03/08 04:28:46;;;;;;;5.63;5.13;;;0.80;99.90;;;;;;4984133;28;20500;-69
2023/03/08 04:31:16;;;;;;;6.13;5.60;;;0.90;99.90;;;;;;4984318;28;20485;-69
2023/03/08 04:33:44;;;;;;;6.40;5.80;;;0.90;99.90;;;;;;4984900;28;20478;-68
2023/03/08 04:36:13;;;;;;;5.57;5.03;;;0.90;99.90;;;;;;4988387;28;20891;-69
2023/03/08 04:38:41;;;;;;;6.10;5.47;;;0.90;99.90;;;;;;4985772;28;20511;-68
2023/03/08 04:41:10;;;;;;;5.73;5.23;;;0.90;99.90;;;;;;4990559;28;20869;-67
2023/03/08 04:43:43;;;;;;;5.67;5.17;;;1.00;99.90;;;;;;4996474;28;22311;-69
2023/03/08 04:46:12;;;;;;;5.13;4.63;;;1.00;99.90;;;;;;4986841;28;20514;-69
2023/03/08 04:48:40;;;;;;;5.50;4.50;;;1.00;99.90;;;;;;4991347;28;20491;-69
2023/03/08 04:51:09;;;;;;;5.63;4.80;;;1.00;99.90;;;;;;4984561;28;21101;-68
2023/03/08 04:53:38;;;;;;;5.40;4.90;;;0.90;99.90;;;;;;4986734;28;20483;-68
2023/03/08 04:56:07;;;;;;;5.10;4.60;;;1.00;99.90;;;;;;4990013;28;20481;-68
2023/03/08 04:58:36;;;;;;;7.20;4.80;;;0.90;99.90;;;;;;4986747;28;21428;-68
2023/03/08 05:01:11;;;;;;;4.50;4.10;;;1.00;99.90;;;;;;4982017;28;20492;-68
2023/03/08 05:03:39;;;;;;;6.33;4.63;;;0.90;99.90;;;;;;4988213;28;21094;-67
2023/03/08 05:06:08;;;;;;;5.33;4.70;;;0.90;99.90;;;;;;4988527;28;20468;-67
2023/03/08 05:08:36;;;;;;;5.13;4.50;;;0.90;99.90;;;;;;4986675;28;21028;-68
2023/03/08 05:11:04;;;;;;;4.83;4.47;;;1.00;99.90;;;;;;4987160;28;20495;-67
2023/03/08 05:13:35;;;;;;;4.87;4.47;;;1.00;99.90;;;;;;4986086;28;20500;-67
2023/03/08 05:16:04;;;;;;;4.27;3.87;;;1.00;99.90;;;;;;4975314;28;20475;-67
2023/03/08 05:18:33;;;;;;;4.73;4.20;;;1.00;99.90;;;;;;4980721;28;20488;-69
2023/03/08 05:21:03;;;;;;;5.10;4.43;;;1.00;99.90;;;;;;4980492;28;20911;-68
2023/03/08 05:23:31;;;;;;;4.80;4.40;;;1.00;99.90;;;;;;4978537;28;20559;-67
2023/03/08 05:26:01;;;;;;;4.60;4.20;;;1.00;99.90;;;;;;4984033;28;20483;-69
2023/03/08 05:28:30;;;;;;;4.40;4.10;;;1.00;99.90;;;;;;4978971;28;20488;-69
2023/03/08 05:31:02;;;;;;;5.40;5.00;;;1.00;99.90;;;;;;4983094;28;21035;-69
2023/03/08 05:33:30;;;;;;;6.70;4.80;;;1.00;99.90;;;;;;4979383;28;20464;-68
2023/03/08 05:36:00;;;;;;;4.60;4.20;;;1.00;99.90;;;;;;4991160;28;20469;-68
2023/03/08 05:38:28;;;;;;;4.70;4.30;;;1.00;99.90;;;;;;4981261;28;20524;-68
2023/03/08 05:41:00;;;;;;;4.20;3.90;;;1.00;99.90;;;;;;4990390;28;20492;-68
2023/03/08 05:43:28;;;;;;;4.17;3.77;;;1.10;99.90;;;;;;4986995;28;21078;-68
2023/03/08 05:45:58;;;;;;;4.40;4.10;;;1.00;99.90;;;;;;4991379;28;20927;-68
2023/03/08 05:48:26;;;;;;;4.80;4.30;;;1.10;99.90;;;;;;4993997;28;20611;-68
2023/03/08 05:51:16;;;;;;;4.57;4.27;;;1.10;99.90;;;;;;4986893;28;22729;-68
2023/03/08 05:53:44;;;;;;;5.20;4.40;;;1.10;99.90;;;;;;4999333;28;20464;-66
2023/03/08 05:56:14;;;;;;;4.90;4.50;;;1.10;99.90;;;;;;4992416;28;20531;-67
2023/03/08 05:58:42;;;;;;;4.40;4.00;;;1.10;99.90;;;;;;4994831;28;21045;-67
2023/03/08 06:01:15;;;;;;;5.80;5.30;;;1.10;99.90;;;;;;4990042;28;20500;-68
2023/03/08 06:03:43;;;;;;;6.03;4.70;;;1.10;99.90;;;;;;4998556;28;20523;-68
2023/03/08 06:06:12;;;;;;;5.60;5.17;;;1.10;99.90;;;;;;4992290;28;20992;-68
2023/03/08 06:08:41;;;;;;;6.57;5.97;;;1.10;99.90;;;;;;4996134;28;20495;-68
2023/03/08 06:11:10;;;;;;;7.33;6.63;;;1.10;99.90;;;;;;5000389;28;20468;-68
2023/03/08 06:13:38;;;;;;;8.40;7.20;;;1.20;99.90;;;;;;5000785;28;20483;-69
2023/03/08 06:16:07;;;;;;;7.17;6.43;;;1.20;99.90;;;;;;5001382;28;20472;-69
2023/03/08 06:18:37;;;;;;;8.03;7.23;;;1.10;99.90;;;;;;5001768;28;20824;-67
2023/03/08 06:21:06;;;;;;;9.57;7.83;;;1.20;99.90;;;;;;4999403;28;20543;-68
2023/03/08 06:23:35;;;;;;;8.00;7.17;;;1.10;99.90;;;;;;5000306;28;20842;-68
2023/03/08 06:26:06;;;;;;;7.70;6.90;;;1.20;99.90;;;;;;5001442;28;20480;-68
2023/03/08 06:28:34;;;;;;;8.03;7.10;;;1.20;99.90;;;;;;5002429;28;21043;-68
2023/03/08 06:31:03;;;;;;;12.60;7.83;;;1.10;99.90;;;;;;5000466;28;20877;-68
2023/03/08 06:33:32;;;;;;;9.73;8.50;;;1.10;99.90;;;;;;5001530;28;20482;-67
2023/03/08 06:36:02;;;;;;;12.73;8.93;;;1.20;99.90;;;;;;5001845;28;20473;-68
2023/03/08 06:38:32;;;;;;;10.87;8.40;;;1.20;99.90;;;;;;5000262;28;20498;-68
2023/03/08 06:41:00;;;;;;;11.23;8.67;;;1.20;99.90;;;;;;5000994;28;20579;-67
2023/03/08 06:43:30;;;;;;;9.90;8.90;;;1.20;99.90;;;;;;5000631;28;20496;-66
2023/03/08 06:45:58;;;;;;;10.27;8.40;;;1.20;99.90;;;;;;5003549;28;20821;-68
2023/03/08 06:48:26;;;;;;;10.47;8.80;;;1.20;99.90;;;;;;5002737;28;20538;-66
2023/03/08 06:50:54;;;;;;;9.47;7.87;;;1.20;99.90;;;;;;5002217;28;21004;-68
2023/03/08 06:53:22;;;;;;;9.10;7.50;;;1.20;99.90;;;;;;5000850;28;20473;-67
2023/03/08 06:55:50;;;;;;;10.77;8.00;;;1.20;99.90;;;;;;5002140;28;20969;-67
2023/03/08 06:58:18;;;;;;;9.87;8.43;;;1.20;99.90;;;;;;5003853;28;20492;-67
2023/03/08 07:00:47;;;;;;;13.00;9.10;;;1.20;99.90;;;;;;5003194;28;20548;-67
2023/03/08 07:03:16;;;;;;;10.40;8.90;;;1.20;99.90;;;;;;4999420;28;20529;-67
2023/03/08 07:05:44;;;;;;;9.67;8.17;;;1.20;99.90;;;;;;5002443;28;20476;-68
2023/03/08 07:08:12;;;;;;;11.80;8.70;;;1.20;99.90;;;;;;4999966;28;20607;-68
2023/03/08 07:10:39;;;;;;;13.33;9.60;;;1.20;99.90;;;;;;5000369;28;20473;-67
2023/03/08 07:13:07;;;;;;;10.33;9.20;;;1.30;99.90;;;;;;5000940;28;20469;-67
2023/03/08 07:15:39;;;;;;;13.80;9.63;;;1.30;99.90;;;;;;5001836;28;20472;-67
2023/03/08 07:18:08;;;;;;;11.47;9.63;;;1.30;99.90;;;;;;5000242;28;20520;-68
2023/03/08 07:20:36;;;;;;;12.07;9.30;;;1.30;99.90;;;;;;4999600;28;20488;-67
2023/03/08 07:23:04;;;;;;;12.10;9.93;;;1.30;99.90;;;;;;4997882;28;20594;-68
2023/03/08 07:25:32;;;;;;;12.80;11.03;;;1.30;99.90;;;;;;5001070;28;20961;-68
2023/03/08 07:28:00;;;;;;;16.20;12.10;;;1.30;99.90;;;;;;5000233;28;20479;-68
2023/03/08 07:30:28;;;;;;;14.20;10.93;;;1.30;99.90;;;;;;4998847;28;20479;-67
2023/03/08 07:32:56;;;;;;;12.30;9.80;;;1.30;99.90;;;;;;5000796;28;20472;-67
2023/03/08 07:35:25;;;;;;;12.80;10.20;;;1.40;99.90;;;;;;5001031;28;20548;-68
2023/03/08 07:37:53;;;;;;;11.80;9.43;;;1.40;99.90;;;;;;4997885;28;20479;-68
2023/03/08 07:40:21;;;;;;;13.77;10.23;;;1.40;99.90;;;;;;5000131;28;20468;-66
2023/03/08 07:42:49;;;;;;;12.90;9.97;;;1.40;99.90;;;;;;5000562;28;20833;-66
2023/03/08 07:45:18;;;;;;;12.40;9.37;;;1.40;99.90;;;;;;5001009;28;20532;-67
2023/03/08 07:47:46;;;;;;;12.30;9.23;;;1.40;99.90;;;;;;4999613;28;20475;-67
2023/03/08 07:50:13;;;;;;;12.27;9.13;;;1.50;99.90;;;;;;5000146;28;20478;-68
2023/03/08 07:52:43;;;;;;;13.03;9.20;;;1.50;99.90;;;;;;4999830;28;21021;-68
2023/03/08 07:55:11;;;;;;;13.97;10.07;;;1.50;99.90;;;;;;5000735;28;20477;-68
2023/03/08 07:57:39;;;;;;;13.00;10.30;;;1.60;99.90;;;;;;4999710;28;20479;-68
2023/03/08 08:00:09;;;;;;;15.10;10.20;;;1.60;99.90;;;;;;4999084;28;20689;-67
2023/03/08 08:02:37;;;;;;;12.73;10.17;;;1.60;99.90;;;;;;4999649;28;21165;-68
2023/03/08 08:05:06;;;;;;;10.40;9.27;;;1.60;99.90;;;;;;4997484;28;20500;-68
2023/03/08 08:07:34;;;;;;;12.07;8.90;;;1.60;99.90;;;;;;5000232;28;20528;-67
2023/03/08 08:10:04;;;;;;;12.57;9.40;;;1.60;99.90;;;;;;4999251;28;20489;-67
2023/03/08 08:12:32;;;;;;;10.57;9.03;;;1.70;99.90;;;;;;4999753;28;20487;-68
2023/03/08 08:15:00;;;;;;;15.37;9.60;;;1.70;99.90;;;;;;4998161;28;20472;-68
2023/03/08 08:17:28;;;;;;;13.27;9.57;;;1.70;99.90;;;;;;4999670;28;20465;-68
2023/03/08 08:19:56;;;;;;;13.83;10.10;;;1.70;99.90;;;;;;5000667;28;20496;-68
2023/03/08 08:22:24;;;;;;;15.57;11.63;;;1.80;99.90;;;;;;4996731;28;20999;-67
2023/03/08 08:24:52;;;;;;;14.70;10.50;;;1.80;99.90;;;;;;4998869;28;20488;-67
2023/03/08 08:27:21;;;;;;;14.60;11.00;;;1.80;99.90;;;;;;4997731;28;20468;-67
2023/03/08 08:29:50;;;;;;;15.43;11.10;;;1.80;99.90;;;;;;5000137;28;20496;-68
2023/03/08 08:32:18;;;;;;;15.53;10.60;;;1.80;99.90;;;;;;4998908;28;20595;-68
2023/03/08 08:34:46;;;;;;;15.43;11.00;;;1.80;99.90;;;;;;4999688;28;20510;-67
2023/03/08 08:37:14;;;;;;;14.80;10.43;;;1.80;99.90;;;;;;4993765;28;21004;-67
2023/03/08 08:39:42;;;;;;;15.73;10.70;;;1.80;99.90;;;;;;5000476;28;20517;-68
2023/03/08 08:42:10;;;;;;;18.03;12.20;;;1.80;99.90;;;;;;4997550;28;20488;-68
2023/03/08 08:44:39;;;;;;;12.53;9.60;;;1.90;99.90;;;;;;4999395;28;21047;-68
2023/03/08 08:47:07;;;;;;;14.90;10.47;;;1.90;99.90;;;;;;4998513;28;20505;-68
2023/03/08 08:49:35;;;;;;;17.70;11.93;;;1.90;99.90;;;;;;4999671;28;20501;-68
2023/03/08 08:52:04;;;;;;;15.00;11.27;;;1.90;99.90;;;;;;4998600;28;20483;-68
2023/03/08 08:54:33;;;;;;;16.13;11.33;;;2.00;99.90;;;;;;4994702;28;20496;-68
2023/03/08 08:57:01;;;;;;;19.10;11.43;;;2.00;99.90;;;;;;5000062;28;20572;-68
2023/03/08 08:59:29;;;;;;;16.50;11.50;;;2.10;99.90;;;;;;4998443;28;20865;-68
2023/03/08 09:01:58;;;;;;;13.90;9.43;;;2.10;99.90;;;;;;4999602;28;21022;-68
2023/03/08 09:04:26;;;;;;;18.30;9.50;;;2.10;99.90;;;;;;4998147;28;20488;-68
2023/03/08 09:06:54;;;;;;;13.87;9.10;;;2.10;99.90;;;;;;4998658;28;20476;-68
2023/03/08 09:09:22;;;;;;;10.90;8.30;;;2.10;99.90;;;;;;4996612;28;20859;-68
2023/03/08 09:11:50;;;;;;;11.77;8.30;;;2.10;99.90;;;;;;4998247;28;20472;-69
2023/03/08 09:14:23;;;;;;;13.23;9.10;;;2.10;99.90;;;;;;4999634;28;20473;-68
2023/03/08 09:16:52;;;;;;;13.40;9.53;;;2.20;99.90;;;;;;4999504;28;20479;-66
2023/03/08 09:19:21;;;;;;;15.00;8.90;;;2.10;99.90;;;;;;4996389;28;20575;-67
2023/03/08 09:21:49;;;;;;;13.40;10.00;;;2.20;99.90;;;;;;4999041;28;20501;-67
2023/03/08 09:24:17;;;;;;;13.80;11.07;;;2.20;99.90;;;;;;4998030;28;20499;-67
2023/03/08 09:26:45;;;;;;;17.53;12.30;;;2.20;99.90;;;;;;4998080;28;20468;-67
2023/03/08 09:29:13;;;;;;;15.50;12.13;;;2.20;99.90;;;;;;4999523;28;21013;-67
2023/03/08 09:31:44;;;;;;;15.70;12.80;;;2.20;99.90;;;;;;4997616;28;20472;-67
2023/03/08 09:34:14;;;;;;;13.90;10.80;;;2.20;99.90;;;;;;4998648;28;21334;-67
2023/03/08 09:36:44;;;;;;;10.70;8.33;;;2.20;99.90;;;;;;4999606;28;20578;-68
2023/03/08 09:39:13;;;;;;;15.17;9.33;;;2.20;99.90;;;;;;4996123;28;20497;-67
2023/03/08 09:41:50;;;;;;;14.40;10.10;;;2.10;99.90;;;;;;4996857;28;21125;-68
2023/03/08 09:44:33;;;;;;;14.63;11.60;;;2.10;99.90;;;;;;4999528;28;20520;-67
2023/03/08 09:47:05;;;;;;;18.43;12.50;;;2.10;99.90;;;;;;4998541;28;20483;-67
2023/03/08 09:49:35;;;;;;;14.87;10.90;;;2.10;99.90;;;;;;4999018;28;20507;-67
2023/03/08 09:52:10;;;;;;;13.60;9.50;;;2.10;99.90;;;;;;4997568;28;20492;-68
2023/03/08 09:54:39;;;;;;;12.40;9.13;;;2.10;99.90;;;;;;4999682;28;21358;-68
2023/03/08 09:57:16;;;;;;;14.03;9.30;;;2.10;99.90;;;;;;4999049;28;20469;-67
2023/03/08 09:59:50;;;;;;;14.87;10.57;;;2.20;99.90;;;;;;4998167;28;20504;-67
2023/03/08 10:02:32;;;;;;;15.60;10.70;;;2.20;99.90;;;;;;4997099;28;20491;-68
2023/03/08 10:05:08;;;;;;;15.63;10.80;;;2.30;99.90;;;;;;4998374;28;20501;-68
2023/03/08 10:07:49;;;;;;;11.37;9.20;;;2.30;99.90;;;;;;4996829;28;20468;-68
2023/03/08 10:10:27;;;;;;;13.50;10.40;;;2.40;99.90;;;;;;4997413;28;20576;-67
2023/03/08 10:13:12;;;;;;;14.97;10.57;;;2.40;99.90;;;;;;4997742;28;20578;-68
2023/03/08 10:15:46;;;;;;;16.83;11.60;;;2.50;99.90;;;;;;4998804;28;20472;-68
2023/03/08 10:18:18;;;;;;;13.40;9.70;;;2.50;99.90;;;;;;4996106;28;20497;-68
2023/03/08 10:20:47;;;;;;;12.50;8.80;;;2.50;99.90;;;;;;5000237;28;20476;-68
2023/03/08 10:23:19;;;;;;;12.53;8.27;;;2.50;99.90;;;;;;5001872;28;20484;-68
2023/03/08 10:25:48;;;;;;;10.30;7.80;;;2.50;99.90;;;;;;5001366;28;20498;-68
2023/03/08 10:28:20;;;;;;;10.70;8.90;;;2.50;99.90;;;;;;5002438;28;21043;-68
2023/03/08 10:30:51;;;;;;;10.00;7.80;;;2.60;99.90;;;;;;5000893;28;20864;-67
2023/03/08 10:33:21;;;;;;;12.00;8.73;;;2.60;99.90;;;;;;5000767;28;20469;-68
2023/03/08 10:35:58;;;;;;;14.63;8.30;;;2.70;99.90;;;;;;5000251;28;20484;-68
2023/03/08 10:38:30;;;;;;;11.50;7.67;;;2.70;99.90;;;;;;5001562;28;20492;-68
2023/03/08 10:41:06;;;;;;;10.43;7.40;;;2.70;99.90;;;;;;5000938;28;20476;-68
2023/03/08 10:43:39;;;;;;;8.90;7.27;;;2.80;99.90;;;;;;5000244;28;20483;-68
2023/03/08 10:46:13;;;;;;;10.50;7.10;;;2.80;99.90;;;;;;5000456;28;20496;-68
2023/03/08 10:48:41;;;;;;;9.80;7.10;;;2.80;99.90;;;;;;5001152;28;20493;-67
2023/03/08 10:51:17;;;;;;;10.93;8.00;;;2.90;99.90;;;;;;4997312;28;20946;-68
2023/03/08 10:53:55;;;;;;;10.40;7.17;;;3.00;99.90;;;;;;4995404;28;20754;-67
2023/03/08 10:56:26;;;;;;;8.77;6.80;;;3.10;99.90;;;;;;5002280;28;20468;-68
2023/03/08 10:58:56;;;;;;;9.50;7.47;;;3.20;99.90;;;;;;5001020;28;20499;-68
2023/03/08 11:01:26;;;;;;;8.90;5.83;;;3.30;99.90;;;;;;5001343;28;20480;-68
2023/03/08 11:04:02;;;;;;;8.37;6.87;;;3.30;99.90;;;;;;5001948;28;20522;-68
2023/03/08 11:06:30;;;;;;;7.70;5.97;;;3.40;99.90;;;;;;5002305;28;20503;-68
2023/03/08 11:09:04;;;;;;;8.30;6.37;;;3.50;99.90;;;;;;4999720;28;20512;-68
2023/03/08 11:11:40;;;;;;;10.53;6.83;;;3.50;99.90;;;;;;4999574;28;20556;-68
2023/03/08 11:14:10;;;;;;;10.53;7.40;;;3.50;99.90;;;;;;5002021;28;20472;-68
2023/03/08 11:16:48;;;;;;;8.57;6.73;;;3.50;99.90;;;;;;5001202;28;20475;-68
2023/03/08 11:19:32;;;;;;;10.87;6.20;;;3.50;99.90;;;;;;5000805;28;20515;-68
2023/03/08 11:22:12;;;;;;;8.37;6.83;;;3.50;99.90;;;;;;5000634;28;20564;-69
2023/03/08 11:24:55;;;;;;;13.43;8.17;;;3.50;99.90;;;;;;4998506;28;20468;-68
2023/03/08 11:27:40;;;;;;;12.17;8.13;;;3.50;99.90;;;;;;5002830;28;20468;-69
2023/03/08 11:30:22;;;;;;;9.53;7.63;;;3.50;99.90;;;;;;4998992;28;20583;-69
2023/03/08 11:33:07;;;;;;;10.80;8.63;;;3.60;99.90;;;;;;4999971;28;20488;-68
2023/03/08 11:35:43;;;;;;;12.93;9.27;;;3.60;99.90;;;;;;5002334;28;20515;-68
2023/03/08 11:38:16;;;;;;;11.53;9.70;;;3.60;99.90;;;;;;5000473;28;20694;-68
2023/03/08 11:40:55;;;;;;;13.20;10.23;;;3.60;99.90;;;;;;5000279;28;21016;-68
2023/03/08 11:43:40;;;;;;;13.53;10.17;;;3.60;99.90;;;;;;5002098;28;20453;-69
2023/03/08 11:46:17;;;;;;;13.97;10.23;;;3.70;99.90;;;;;;5002048;28;20484;-69
2023/03/08 11:49:04;;;;;;;13.40;9.67;;;3.80;99.90;;;;;;5000341;28;20501;-69
2023/03/08 11:51:37;;;;;;;11.40;9.23;;;4.00;99.90;;;;;;5000286;28;20575;-69
2023/03/08 11:54:18;;;;;;;11.47;8.83;;;4.10;99.90;;;;;;5002464;28;20546;-69
2023/03/08 11:56:56;;;;;;;11.50;8.40;;;4.30;99.90;;;;;;5000669;28;20460;-69
2023/03/08 11:59:32;;;;;;;9.97;8.50;;;4.40;99.90;;;;;;4999702;28;21067;-68
2023/03/08 12:02:09;;;;;;;10.47;8.37;;;4.60;99.90;;;;;;4999785;28;20487;-69
2023/03/08 12:04:45;;;;;;;13.47;8.47;;;4.60;99.90;;;;;;5001263;28;20963;-68
2023/03/08 12:07:19;;;;;;;8.90;7.27;;;4.80;99.90;;;;;;5001129;28;20499;-68
2023/03/08 12:09:55;;;;;;;10.80;8.00;;;4.90;99.90;;;;;;5000748;28;21039;-68
2023/03/08 12:12:30;;;;;;;9.80;8.60;;;5.10;99.90;;;;;;5001045;28;20531;-68
2023/03/08 12:15:05;;;;;;;12.07;8.93;;;5.10;99.90;;;;;;5001022;28;20490;-68
2023/03/08 12:17:38;;;;;;;10.60;8.57;;;5.30;99.90;;;;;;4998671;28;21178;-68
2023/03/08 12:20:13;;;;;;;9.50;8.20;;;5.70;99.90;;;;;;5000418;28;20576;-68
2023/03/08 12:22:46;;;;;;;9.90;8.47;;;5.90;99.90;;;;;;4999058;28;20481;-68
2023/03/08 12:25:24;;;;;;;8.77;7.87;;;6.10;99.90;;;;;;5000461;28;20480;-68
2023/03/08 12:27:58;;;;;;;9.57;8.67;;;6.50;99.90;;;;;;4998760;28;20491;-68
2023/03/08 12:30:39;;;;;;;8.90;8.00;;;7.10;99.90;;;;;;4999790;28;20516;-67
2023/03/08 12:33:11;;;;;;;9.07;7.80;;;7.70;99.90;;;;;;5000258;28;20862;-68
2023/03/08 12:35:51;;;;;;;8.60;7.77;;;8.40;99.90;;;;;;4995113;28;21059;-68
2023/03/08 12:38:41;;;;;;;8.23;7.53;;;9.60;99.90;;;;;;4999792;28;20503;-68
2023/03/08 12:41:25;;;;;;;9.77;6.80;;;11.40;99.90;;;;;;4980872;28;20567;-68
2023/03/08 12:44:04;;;;;;;8.37;7.67;;;13.10;77.60;;;;;;4988855;28;20598;-68
2023/03/08 12:46:50;;;;;;;7.50;6.90;;;14.60;56.40;;;;;;4991847;28;20583;-69
2023/03/08 12:49:34;;;;;;;7.17;6.57;;;15.90;45.40;;;;;;5000176;28;20484;-68
2023/03/08 12:52:05;;;;;;;7.20;6.60;;;16.70;42.00;;;;;;4997625;28;20513;-69
2023/03/08 12:54:35;;;;;;;7.40;6.77;;;16.10;40.20;;;;;;4998197;28;20499;-69
2023/03/08 12:57:14;;;;;;;7.63;7.03;;;15.10;41.70;;;;;;4999141;28;20488;-67
2023/03/08 12:59:45;;;;;;;7.63;7.03;;;14.00;44.10;;;;;;4998373;28;20489;-67
2023/03/08 13:02:26;;;;;;;7.03;6.43;;;12.80;46.80;;;;;;4998693;28;20484;-68
2023/03/08 13:05:17;;;;;;;6.53;6.03;;;12.30;46.50;;;;;;4998115;28;20471;-68
2023/03/08 13:08:00;;;;;;;6.97;6.33;;;12.20;50.30;;;;;;4993669;28;20862;-68